createdAt,value
2018-05-18T00:01:31.725Z,100400.08
2018-05-18T00:04:00.957Z,100401.78
2018-05-18T00:06:30.162Z,100395.73
2018-05-18T00:08:59.378Z,100396.59
2018-05-18T00:11:28.601Z,100402.70
2018-05-18T00:13:57.827Z,100401.66
2018-05-18T00:16:27.031Z,100404.22
2018-05-18T00:18:56.252Z,100400.17
2018-05-18T00:21:26.245Z,100400.81
2018-05-18T00:23:55.548Z,100407.86
2018-05-18T00:26:24.774Z,100401.69
2018-05-18T00:28:54.772Z,100399.34
2018-05-18T00:31:24.017Z,100398.35
2018-05-18T00:33:53.276Z,100399.63
2018-05-18T00:36:23.259Z,100393.96
2018-05-18T00:38:52.504Z,100399.17
2018-05-18T00:41:22.492Z,100394.22
2018-05-18T00:43:51.685Z,100394.44
2018-05-18T00:46:21.692Z,100398.29
2018-05-18T00:48:50.917Z,100399.09
2018-05-18T00:51:20.121Z,100396.70
2018-05-18T00:53:50.103Z,100389.84
2018-05-18T00:56:19.324Z,100384.73
2018-05-18T00:58:48.525Z,100384.33
2018-05-18T01:01:18.523Z,100388.08
2018-05-18T01:03:47.731Z,100392.47
2018-05-18T01:06:17.735Z,100394.06
2018-05-18T01:08:46.950Z,100393.11
2018-05-18T01:11:16.300Z,100388.08
2018-05-18T01:13:45.501Z,100384.21
2018-05-18T01:16:14.757Z,100385.13
2018-05-18T01:18:44.750Z,100388.03
2018-05-18T01:21:13.949Z,100385.39
2018-05-18T01:23:43.954Z,100386.19
2018-05-18T01:26:13.178Z,100385.44
2018-05-18T01:28:43.157Z,100387.44
2018-05-18T01:31:12.391Z,100389.17
2018-05-18T01:33:42.373Z,100382.17
2018-05-18T01:36:11.578Z,100394.02
2018-05-18T01:38:40.830Z,100386.33
2018-05-18T01:41:10.034Z,100390.88
2018-05-18T01:43:39.267Z,100386.53
2018-05-18T01:46:08.465Z,100383.22
2018-05-18T01:48:37.685Z,100389.59
2018-05-18T01:51:06.890Z,100390.62
2018-05-18T01:53:36.180Z,100394.23
2018-05-18T01:56:05.394Z,100393.39
2018-05-18T01:58:35.599Z,100401.82
2018-05-18T02:01:04.799Z,100397.20
2018-05-18T02:03:34.027Z,100398.55
2018-05-18T02:06:03.218Z,100403.34
2018-05-18T02:08:33.201Z,100396.95
2018-05-18T02:11:02.525Z,100391.73
2018-05-18T02:13:32.524Z,100393.33
2018-05-18T02:16:02.341Z,100396.99
2018-05-18T02:18:31.562Z,100392.38
2018-05-18T02:21:00.758Z,100396.57
2018-05-18T02:23:30.015Z,100392.23
2018-05-18T02:25:59.226Z,100389.23
2018-05-18T02:28:28.429Z,100386.56
2018-05-18T02:30:58.448Z,100389.80
2018-05-18T02:33:28.468Z,100394.84
2018-05-18T02:35:58.593Z,100392.72
2018-05-18T02:38:28.566Z,100388.25
2018-05-18T02:40:57.794Z,100390.22
2018-05-18T02:43:27.762Z,100389.48
2018-05-18T02:45:57.006Z,100388.46
2018-05-18T02:48:27.022Z,100394.69
2018-05-18T02:50:56.235Z,100398.79
2018-05-18T02:53:26.276Z,100394.08
2018-05-18T02:55:55.490Z,100392.56
2018-05-18T02:58:24.740Z,100389.77
2018-05-18T03:00:53.867Z,100393.30
2018-05-18T03:03:23.061Z,100400.70
2018-05-18T03:05:52.316Z,100404.06
2018-05-18T03:08:21.500Z,100396.40
2018-05-18T03:10:50.714Z,100395.82
2018-05-18T03:13:19.913Z,100391.61
2018-05-18T03:15:49.130Z,100392.48
2018-05-18T03:18:19.151Z,100397.88
2018-05-18T03:20:49.133Z,100399.73
2018-05-18T03:23:18.329Z,100397.77
2018-05-18T03:25:47.845Z,100401.66
2018-05-18T03:28:17.866Z,100397.53
2018-05-18T03:30:47.834Z,100404.75
2018-05-18T03:33:17.806Z,100406.11
2018-05-18T03:35:47.784Z,100404.34
2018-05-18T03:38:17.023Z,100404.75
2018-05-18T03:40:47.229Z,100402.87
2018-05-18T03:43:16.443Z,100397.81
2018-05-18T03:45:46.452Z,100399.34
2018-05-18T03:48:16.445Z,100397.31
2018-05-18T03:50:45.657Z,100397.37
2018-05-18T03:53:15.682Z,100407.52
2018-05-18T03:55:45.636Z,100399.06
2018-05-18T03:58:14.844Z,100402.34
2018-05-18T04:00:44.816Z,100403.66
2018-05-18T04:03:31.614Z,100404.92
2018-05-18T04:06:19.185Z,100404.23
2018-05-18T04:08:54.006Z,100404.95
2018-05-18T04:11:23.210Z,100413.59
2018-05-18T04:13:52.454Z,100412.48
2018-05-18T04:16:21.639Z,100411.54
2018-05-18T04:18:50.841Z,100416.77
2018-05-18T04:21:20.137Z,100429.09
2018-05-18T04:23:49.337Z,100431.48
2018-05-18T04:26:18.812Z,100432.50
2018-05-18T04:28:48.011Z,100431.70
2018-05-18T04:31:17.268Z,100431.72
2018-05-18T04:33:47.205Z,100436.75
2018-05-18T04:36:16.525Z,100440.86
2018-05-18T04:38:45.689Z,100436.66
2018-05-18T04:41:15.014Z,100435.70
2018-05-18T04:43:44.214Z,100437.34
2018-05-18T04:46:13.478Z,100438.28
2018-05-18T04:48:43.465Z,100434.61
2018-05-18T04:51:12.981Z,100443.83
2018-05-18T04:53:43.023Z,100452.47
2018-05-18T04:56:13.022Z,100441.78
2018-05-18T04:58:43.027Z,100451.56
2018-05-18T05:01:12.319Z,100446.70
2018-05-18T05:03:41.523Z,100444.39
2018-05-18T05:06:11.563Z,100439.87
2018-05-18T05:08:40.763Z,100446.34
2018-05-18T05:11:09.965Z,100454.73
2018-05-18T05:13:39.185Z,100460.36
2018-05-18T05:16:08.389Z,100451.78
2018-05-18T05:18:37.595Z,100454.80
2018-05-18T05:21:06.776Z,100453.78
2018-05-18T05:23:36.035Z,100456.95
2018-05-18T05:26:06.039Z,100461.23
2018-05-18T05:28:36.002Z,100466.67
2018-05-18T05:31:05.308Z,100462.66
2018-05-18T05:33:34.597Z,100465.29
2018-05-18T05:36:03.809Z,100469.72
2018-05-18T05:38:33.071Z,100468.72
2018-05-18T05:41:03.122Z,100453.96
2018-05-18T05:43:32.582Z,100467.36
2018-05-18T05:46:02.578Z,100462.69
2018-05-18T05:48:31.795Z,100464.00
2018-05-18T05:51:01.759Z,100474.99
2018-05-18T05:53:30.969Z,100470.33
2018-05-18T05:56:00.175Z,100463.63
2018-05-18T05:58:29.461Z,100470.43
2018-05-18T06:00:58.936Z,100467.87
2018-05-18T06:03:28.205Z,100466.92
2018-05-18T06:05:58.181Z,100478.28
2018-05-18T06:08:27.361Z,100474.80
2018-05-18T06:10:56.725Z,100480.03
2018-05-18T06:13:26.709Z,100479.36
2018-05-18T06:15:56.700Z,100489.94
2018-05-18T06:18:25.984Z,100489.28
2018-05-18T06:20:55.166Z,100489.66
2018-05-18T06:23:24.381Z,100483.41
2018-05-18T06:25:53.600Z,100485.94
2018-05-18T06:28:23.527Z,100484.03
2018-05-18T06:30:52.949Z,100485.84
2018-05-18T06:33:22.947Z,100489.76
2018-05-18T06:35:52.230Z,100499.55
2018-05-18T06:38:21.485Z,100497.48
2018-05-18T06:40:50.710Z,100507.30
2018-05-18T06:43:19.904Z,100499.33
2018-05-18T06:45:49.848Z,100501.39
2018-05-18T06:48:19.031Z,100507.52
2018-05-18T06:50:48.261Z,100507.94
2018-05-18T06:53:17.475Z,100509.15
2018-05-18T06:55:47.536Z,100507.80
2018-05-18T06:58:16.769Z,100513.77
2018-05-18T07:00:45.996Z,100507.85
2018-05-18T07:03:15.187Z,100506.10
2018-05-18T07:05:45.173Z,100506.50
2018-05-18T07:08:15.237Z,100518.22
2018-05-18T07:10:44.545Z,100509.19
2018-05-18T07:13:13.857Z,100512.91
2018-05-18T07:15:43.784Z,100519.27
2018-05-18T07:18:12.996Z,100515.94
2018-05-18T07:20:42.284Z,100517.61
2018-05-18T07:23:11.489Z,100515.14
2018-05-18T07:25:40.681Z,100510.42
2018-05-18T07:28:09.906Z,100509.48
2018-05-18T07:30:39.113Z,100514.07
2018-05-18T07:33:09.083Z,100514.52
2018-05-18T07:35:38.323Z,100512.95
2018-05-18T07:38:08.317Z,100509.04
2018-05-18T07:40:37.534Z,100519.39
2018-05-18T07:43:07.534Z,100518.39
2018-05-18T07:45:38.269Z,100520.23
2018-05-18T07:48:07.520Z,100526.38
2018-05-18T07:50:36.911Z,100527.30
2018-05-18T07:53:06.130Z,100516.89
2018-05-18T07:55:35.346Z,100521.52
2018-05-18T07:58:05.311Z,100523.62
2018-05-18T08:00:34.610Z,100521.86
2018-05-18T08:03:03.819Z,100521.95
2018-05-18T08:05:33.153Z,100523.33
2018-05-18T08:08:02.454Z,100526.97
2018-05-18T08:10:31.676Z,100523.94
2018-05-18T08:13:00.937Z,100519.20
2018-05-18T08:15:31.696Z,100525.77
2018-05-18T08:18:00.931Z,100528.46
2018-05-18T08:20:30.917Z,100526.15
2018-05-18T08:23:00.129Z,100538.04
2018-05-18T08:25:30.130Z,100539.44
2018-05-18T08:27:59.330Z,100543.73
2018-05-18T08:30:35.082Z,100531.13
2018-05-18T08:33:04.372Z,100527.56
2018-05-18T08:35:33.597Z,100525.63
2018-05-18T08:38:03.569Z,100526.33
2018-05-18T08:40:33.055Z,100527.25
2018-05-18T08:43:03.010Z,100531.80
2018-05-18T08:45:32.259Z,100541.97
2018-05-18T08:48:01.537Z,100537.33
2018-05-18T08:50:31.521Z,100535.40
2018-05-18T08:53:00.725Z,100532.23
2018-05-18T08:55:29.979Z,100536.95
2018-05-18T08:57:59.178Z,100535.82
2018-05-18T09:00:28.475Z,100527.20
2018-05-18T09:02:57.742Z,100524.02
2018-05-18T09:05:27.548Z,100520.08
2018-05-18T09:07:56.772Z,100521.55
2018-05-18T09:10:25.989Z,100520.12
2018-05-18T09:12:55.154Z,100523.67
2018-05-18T09:15:24.600Z,100522.14
2018-05-18T09:17:53.841Z,100520.59
2018-05-18T09:20:23.832Z,100520.75
2018-05-18T09:22:53.081Z,100519.08
2018-05-18T09:25:22.286Z,100522.09
2018-05-18T09:27:51.543Z,100523.59
2018-05-18T09:30:20.737Z,100531.91
2018-05-18T09:32:50.811Z,100513.76
2018-05-18T09:35:20.018Z,100513.56
2018-05-18T09:37:49.286Z,100521.76
2018-05-18T09:40:18.512Z,100513.75
2018-05-18T09:42:47.866Z,100509.47
2018-05-18T09:45:17.947Z,100509.52
2018-05-18T09:47:47.110Z,100522.21
2018-05-18T09:50:16.276Z,100514.78
2018-05-18T09:52:45.522Z,100517.27
2018-05-18T09:55:14.967Z,100513.24
2018-05-18T09:57:43.966Z,100513.30
2018-05-18T10:00:13.195Z,100514.85
2018-05-18T10:02:46.261Z,100517.24
2018-05-18T10:05:15.489Z,100516.11
2018-05-18T10:07:44.765Z,100517.08
2018-05-18T10:10:14.746Z,100520.11
2018-05-18T10:12:43.969Z,100511.86
2018-05-18T10:15:13.219Z,100503.55
2018-05-18T10:17:42.420Z,100517.58
2018-05-18T10:20:11.722Z,100519.27
2018-05-18T10:22:41.126Z,100516.13
2018-05-18T10:25:10.409Z,100523.14
2018-05-18T10:27:39.638Z,100522.14
2018-05-18T10:30:10.390Z,100516.69
2018-05-18T10:32:40.359Z,100514.90
2018-05-18T10:35:09.586Z,100518.94
2018-05-18T10:37:38.848Z,100503.59
2018-05-18T10:40:08.069Z,100503.48
2018-05-18T10:42:37.373Z,100500.70
2018-05-18T10:45:06.768Z,100502.95
2018-05-18T10:47:35.974Z,100503.35
2018-05-18T10:50:05.368Z,100496.94
2018-05-18T10:52:34.638Z,100493.55
2018-05-18T10:55:03.881Z,100503.84
2018-05-18T10:57:34.588Z,100496.19
2018-05-18T11:00:04.613Z,100500.53
2018-05-18T11:02:33.855Z,100498.49
2018-05-18T11:05:03.291Z,100491.89
2018-05-18T11:07:32.553Z,100492.45
2018-05-18T11:10:02.512Z,100483.05
2018-05-18T11:12:31.739Z,100488.63
2018-05-18T11:15:01.391Z,100485.90
2018-05-18T11:17:30.605Z,100481.81
2018-05-18T11:19:59.897Z,100492.97
2018-05-18T11:22:29.126Z,100482.08
2018-05-18T11:24:58.350Z,100480.92
2018-05-18T11:30:03.555Z,100471.68
2018-05-18T11:32:32.843Z,100471.53
2018-05-18T11:35:02.141Z,100464.95
2018-05-18T11:37:31.378Z,100477.32
2018-05-18T11:40:00.810Z,100471.77
2018-05-18T11:42:30.303Z,100453.49
2018-05-18T11:44:59.934Z,100462.09
2018-05-18T11:47:29.747Z,100458.25
2018-05-18T11:49:59.441Z,100459.09
2018-05-18T11:52:28.859Z,100461.87
2018-05-18T11:54:59.009Z,100451.36
2018-05-18T11:57:28.383Z,100445.30
2018-05-18T11:59:59.696Z,100451.19
2018-05-18T12:04:57.539Z,100451.47
2018-05-18T12:07:27.770Z,100450.49
2018-05-18T12:09:57.137Z,100448.68
2018-05-18T12:12:26.769Z,100444.37
2018-05-18T12:14:56.379Z,100444.45
2018-05-18T12:17:25.876Z,100436.28
2018-05-18T12:19:55.500Z,100438.21
2018-05-18T12:22:25.462Z,100443.56
2018-05-18T12:24:55.848Z,100439.98
2018-05-18T12:27:25.264Z,100429.48
2018-05-18T12:29:54.640Z,100439.66
2018-05-18T12:32:24.167Z,100432.41
2018-05-18T12:34:53.665Z,100433.38
2018-05-18T12:37:23.204Z,100428.32
2018-05-18T12:39:54.232Z,100430.84
2018-05-18T12:42:23.713Z,100417.61
2018-05-18T12:44:53.056Z,100424.23
2018-05-18T12:47:22.621Z,100424.47
2018-05-18T12:49:51.975Z,100417.07
2018-05-18T12:52:21.917Z,100414.97
2018-05-18T12:54:52.066Z,100421.50
2018-05-18T12:57:22.310Z,100415.76
2018-05-18T12:59:51.671Z,100415.20
2018-05-18T13:02:20.983Z,100420.69
2018-05-18T13:04:50.547Z,100413.66
2018-05-18T13:07:20.055Z,100414.61
2018-05-18T13:09:49.602Z,100409.02
2018-05-18T13:12:19.224Z,100415.41
2018-05-18T13:14:49.507Z,100396.75
2018-05-18T13:17:18.918Z,100400.66
2018-05-18T13:19:48.383Z,100399.25
2018-05-18T13:22:18.049Z,100400.07
2018-05-18T13:24:47.412Z,100394.69
2018-05-18T13:27:16.938Z,100403.09
2018-05-18T13:29:46.335Z,100400.92
2018-05-18T13:32:15.820Z,100395.67
2018-05-18T13:34:45.127Z,100396.66
2018-05-18T13:37:15.022Z,100391.27
2018-05-18T13:39:44.567Z,100390.64
2018-05-18T13:42:15.565Z,100386.08
2018-05-18T13:44:45.083Z,100394.41
2018-05-18T13:47:14.850Z,100395.23
2018-05-18T13:49:44.091Z,100393.47
2018-05-18T13:52:13.463Z,100385.79
2018-05-18T13:54:42.691Z,100386.42
2018-05-18T13:57:11.988Z,100384.56
2018-05-18T13:59:41.151Z,100384.34
2018-05-18T14:02:10.354Z,100390.30
2018-05-18T14:04:39.621Z,100381.97
2018-05-18T14:07:08.899Z,100384.02
2018-05-18T14:09:38.205Z,100384.92
2018-05-18T14:12:07.433Z,100388.14
2018-05-18T14:14:37.581Z,100383.27
2018-05-18T14:17:06.895Z,100382.77
2018-05-18T14:19:36.137Z,100380.74
2018-05-18T14:22:07.093Z,100376.31
2018-05-18T14:24:36.349Z,100375.84
2018-05-18T14:27:05.562Z,100384.05
2018-05-18T14:29:35.684Z,100376.88
2018-05-18T14:32:04.916Z,100379.80
2018-05-18T14:34:35.112Z,100381.96
2018-05-18T14:37:04.337Z,100377.86
2018-05-18T14:39:33.715Z,100377.03
2018-05-18T14:42:02.964Z,100380.64
2018-05-18T14:44:32.177Z,100371.84
2018-05-18T14:47:01.413Z,100373.93
2018-05-18T14:49:31.549Z,100380.45
2018-05-18T14:52:01.595Z,100373.31
2018-05-18T14:54:30.818Z,100379.87
2018-05-18T14:57:00.018Z,100375.72
2018-05-18T14:59:30.021Z,100377.02
2018-05-18T15:01:59.444Z,100377.81
2018-05-18T15:04:28.693Z,100377.14
2018-05-18T15:06:57.955Z,100381.72
2018-05-18T15:09:27.201Z,100378.66
2018-05-18T15:11:56.452Z,100377.25
2018-05-18T15:14:25.687Z,100376.34
2018-05-18T15:16:55.046Z,100368.84
2018-05-18T15:19:24.277Z,100364.30
2018-05-18T15:21:53.541Z,100371.69
2018-05-18T15:24:22.809Z,100374.76
2018-05-18T15:26:52.036Z,100373.35
2018-05-18T15:29:21.265Z,100375.19
2018-05-18T15:31:50.518Z,100372.16
2018-05-18T15:34:19.716Z,100371.40
2018-05-18T15:36:48.921Z,100371.15
2018-05-18T15:39:18.161Z,100367.08
2018-05-18T15:41:47.385Z,100367.48
2018-05-18T15:44:16.625Z,100369.34
2018-05-18T15:46:45.845Z,100378.14
2018-05-18T15:49:15.162Z,100371.78
2018-05-18T15:51:45.139Z,100369.14
2018-05-18T15:54:14.359Z,100369.30
2018-05-18T15:56:44.325Z,100365.94
2018-05-18T15:59:13.585Z,100361.03
2018-05-18T16:01:42.859Z,100365.14
2018-05-18T16:04:12.873Z,100361.88
2018-05-18T16:06:42.142Z,100354.97
2018-05-18T16:09:11.330Z,100364.58
2018-05-18T16:11:40.544Z,100357.24
2018-05-18T16:14:10.102Z,100359.41
2018-05-18T16:16:40.088Z,100363.92
2018-05-18T16:19:09.310Z,100360.41
2018-05-18T16:21:38.557Z,100354.55
2018-05-18T16:24:07.777Z,100362.53
2018-05-18T16:26:37.749Z,100355.21
2018-05-18T16:29:07.053Z,100350.50
2018-05-18T16:31:36.287Z,100352.38
2018-05-18T16:34:06.162Z,100349.66
2018-05-18T16:36:35.705Z,100357.14
2018-05-18T16:39:05.951Z,100363.72
2018-05-18T16:41:35.943Z,100361.20
2018-05-18T16:44:06.611Z,100354.73
2018-05-18T16:46:35.886Z,100356.49
2018-05-18T16:49:05.873Z,100358.69
2018-05-18T16:51:35.972Z,100357.58
2018-05-18T16:54:05.229Z,100360.51
2018-05-18T16:56:35.197Z,100364.70
2018-05-18T16:59:04.646Z,100364.84
2018-05-18T17:01:34.624Z,100359.28
2018-05-18T17:04:04.641Z,100362.86
2018-05-18T17:06:33.894Z,100360.76
2018-05-18T17:09:03.242Z,100368.54
2018-05-18T17:11:32.473Z,100361.37
2018-05-18T17:14:02.499Z,100360.25
2018-05-18T17:16:31.884Z,100360.11
2018-05-18T17:19:01.105Z,100357.00
2018-05-18T17:21:30.403Z,100359.30
2018-05-18T17:23:59.622Z,100351.98
2018-05-18T17:26:28.873Z,100355.62
2018-05-18T17:28:58.171Z,100353.05
2018-05-18T17:31:27.969Z,100358.20
2018-05-18T17:33:57.361Z,100356.08
2018-05-18T17:36:26.608Z,100351.25
2018-05-18T17:38:55.804Z,100362.91
2018-05-18T17:41:25.021Z,100355.16
2018-05-18T17:43:54.236Z,100359.11
2018-05-18T17:46:23.536Z,100361.02
2018-05-18T17:48:52.853Z,100355.92
2018-05-18T17:51:22.119Z,100361.71
2018-05-18T17:53:51.353Z,100359.77
2018-05-18T17:56:21.496Z,100368.91
2018-05-18T17:58:51.210Z,100358.38
2018-05-18T18:01:21.969Z,100366.88
2018-05-18T18:03:51.137Z,100358.63
2018-05-18T18:06:21.080Z,100359.70
2018-05-18T18:08:50.395Z,100356.95
2018-05-18T18:11:19.691Z,100357.70
2018-05-18T18:13:48.906Z,100358.85
2018-05-18T18:16:18.198Z,100358.16
2018-05-18T18:18:47.390Z,100356.41
2018-05-18T18:21:16.617Z,100357.63
2018-05-18T18:23:47.366Z,100356.84
2018-05-18T18:26:16.643Z,100357.34
2018-05-18T18:28:46.051Z,100361.00
2018-05-18T18:31:16.599Z,100356.81
2018-05-18T18:33:45.941Z,100359.36
2018-05-18T18:36:15.206Z,100356.73
2018-05-18T18:38:44.369Z,100358.27
2018-05-18T18:41:13.816Z,100357.55
2018-05-18T18:43:43.086Z,100357.95
2018-05-18T18:46:12.263Z,100364.57
2018-05-18T18:48:41.645Z,100363.81
2018-05-18T18:51:10.918Z,100366.23
2018-05-18T18:53:40.219Z,100370.16
2018-05-18T18:56:10.459Z,100370.59
2018-05-18T18:58:40.408Z,100370.33
2018-05-18T19:01:10.156Z,100369.36
2018-05-18T19:03:39.354Z,100373.00
2018-05-18T19:06:08.946Z,100371.55
2018-05-18T19:08:38.932Z,100367.62
2018-05-18T19:11:09.730Z,100378.39
2018-05-18T19:13:39.380Z,100384.78
2018-05-18T19:16:08.709Z,100384.05
2018-05-18T19:18:38.505Z,100384.05
2018-05-18T19:21:08.710Z,100390.57
2018-05-18T19:23:37.965Z,100385.68
2018-05-18T19:26:07.223Z,100383.75
2018-05-18T19:28:36.477Z,100391.03
2018-05-18T19:31:05.728Z,100390.20
2018-05-18T19:33:35.746Z,100387.08
2018-05-18T19:36:05.756Z,100384.12
2018-05-18T19:38:35.700Z,100389.46
2018-05-18T19:41:05.024Z,100398.83
2018-05-18T19:43:34.310Z,100397.92
2018-05-18T19:46:03.592Z,100402.53
2018-05-18T19:48:33.517Z,100399.27
2018-05-18T19:51:02.794Z,100399.69
2018-05-18T19:53:32.104Z,100401.88
2018-05-18T19:56:02.069Z,100397.55
2018-05-18T19:58:31.395Z,100396.41
2018-05-18T20:01:00.605Z,100401.61
2018-05-18T20:03:30.646Z,100407.07
2018-05-18T20:06:00.610Z,100402.41
2018-05-18T20:08:29.865Z,100406.59
2018-05-18T20:10:59.821Z,100413.92
2018-05-18T20:13:29.106Z,100411.52
2018-05-18T20:15:58.333Z,100415.91
2018-05-18T20:18:27.555Z,100411.80
2018-05-18T20:20:57.548Z,100413.63
2018-05-18T20:23:27.662Z,100416.05
2018-05-18T20:25:57.809Z,100416.13
2018-05-18T20:28:27.793Z,100416.97
2018-05-18T20:30:57.811Z,100413.84
2018-05-18T20:33:27.077Z,100412.45
2018-05-18T20:35:57.476Z,100407.41
2018-05-18T20:38:27.610Z,100422.52
2018-05-18T20:40:56.944Z,100417.23
2018-05-18T20:43:26.188Z,100418.53
2018-05-18T20:45:55.501Z,100419.45
2018-05-18T20:48:24.708Z,100417.30
2018-05-18T20:50:53.958Z,100418.37
2018-05-18T20:53:23.167Z,100419.85
2018-05-18T20:55:52.374Z,100417.81
2018-05-18T20:58:22.376Z,100420.98
2018-05-18T21:00:51.762Z,100425.09
2018-05-18T21:03:21.007Z,100423.48
2018-05-18T21:05:50.237Z,100423.16
2018-05-18T21:08:19.506Z,100428.89
2018-05-18T21:10:48.749Z,100426.10
2018-05-18T21:13:18.620Z,100419.59
2018-05-18T21:15:47.811Z,100423.78
2018-05-18T21:18:17.064Z,100427.80
2018-05-18T21:20:46.292Z,100427.34
2018-05-18T21:23:15.736Z,100429.03
2018-05-18T21:25:44.950Z,100431.03
2018-05-18T21:28:15.234Z,100427.84
2018-05-18T21:30:44.452Z,100438.64
2018-05-18T21:33:13.714Z,100442.39
2018-05-18T21:35:43.791Z,100443.05
2018-05-18T21:38:13.223Z,100436.87
2018-05-18T21:40:43.241Z,100437.14
2018-05-18T21:43:13.271Z,100438.18
2018-05-18T21:45:42.511Z,100442.03
2018-05-18T21:48:11.855Z,100438.97
2018-05-18T21:50:41.872Z,100443.72
2018-05-18T21:53:11.862Z,100441.27
2018-05-18T21:55:41.431Z,100443.69
2018-05-18T21:58:10.635Z,100444.63
2018-05-18T22:00:39.933Z,100444.39
2018-05-18T22:03:09.232Z,100449.47
2018-05-18T22:05:38.473Z,100458.27
2018-05-18T22:08:08.450Z,100456.77
2018-05-18T22:10:37.751Z,100456.05
2018-05-18T22:13:06.979Z,100460.17
2018-05-18T22:15:36.234Z,100455.66
2018-05-18T22:18:05.437Z,100456.38
2018-05-18T22:20:34.657Z,100454.37
2018-05-18T22:23:03.973Z,100456.77
2018-05-18T22:25:33.185Z,100452.67
2018-05-18T22:28:03.177Z,100457.29
2018-05-18T22:30:32.415Z,100453.77
2018-05-18T22:33:01.674Z,100453.05
2018-05-18T22:35:30.935Z,100458.31
2018-05-18T22:38:00.201Z,100453.20
2018-05-18T22:40:29.497Z,100451.19
2018-05-18T22:42:58.722Z,100458.81
2018-05-18T22:45:27.938Z,100457.05
2018-05-18T22:47:57.150Z,100448.97
2018-05-18T22:50:26.322Z,100454.97
2018-05-18T22:52:55.658Z,100456.00
2018-05-18T22:55:24.926Z,100448.01
2018-05-18T22:57:54.190Z,100450.97
2018-05-18T23:00:27.983Z,100446.23
2018-05-18T23:02:57.966Z,100450.67
2018-05-18T23:05:27.925Z,100457.33
2018-05-18T23:07:57.916Z,100457.33
2018-05-18T23:10:27.110Z,100455.81
2018-05-18T23:12:56.360Z,100452.91
2018-05-18T23:15:25.545Z,100461.11
2018-05-18T23:17:54.817Z,100458.29
2018-05-18T23:20:24.797Z,100467.84
2018-05-18T23:22:54.334Z,100459.90
2018-05-18T23:25:23.693Z,100465.97
2018-05-18T23:27:53.020Z,100462.61
2018-05-18T23:30:22.314Z,100458.94
2018-05-18T23:32:53.061Z,100462.77
2018-05-18T23:35:22.293Z,100459.14
2018-05-18T23:37:53.050Z,100457.55
2018-05-18T23:40:22.275Z,100463.41
2018-05-18T23:42:51.475Z,100462.53
2018-05-18T23:45:20.744Z,100466.05
2018-05-18T23:47:50.035Z,100462.14
2018-05-18T23:50:19.268Z,100461.78
2018-05-18T23:52:48.477Z,100459.78
2018-05-18T23:55:17.744Z,100455.47
2018-05-18T23:57:47.263Z,100450.96
